sensor_id;sensor_type;location;lat;lon;timestamp;P1;durP1;ratioP1;P2;durP2;ratioP2
37633;SDS011;32048;49.902;22.508;2023-04-24T00:01:57;13.63;;;7.70;;
37633;SDS011;32048;49.902;22.508;2023-04-24T00:04:25;11.87;;;8.43;;
37633;SDS011;32048;49.902;22.508;2023-04-24T00:06:53;14.23;;;7.97;;
37633;SDS011;32048;49.902;22.508;2023-04-24T00:09:26;13.23;;;9.40;;
37633;SDS011;32048;49.902;22.508;2023-04-24T00:11:53;11.53;;;8.73;;
37633;SDS011;32048;49.902;22.508;2023-04-24T00:14:20;16.00;;;8.70;;
37633;SDS011;32048;49.902;22.508;2023-04-24T00:16:48;12.60;;;8.30;;
37633;SDS011;32048;49.902;22.508;2023-04-24T00:19:15;13.93;;;8.83;;
37633;SDS011;32048;49.902;22.508;2023-04-24T00:21:43;12.57;;;7.70;;
37633;SDS011;32048;49.902;22.508;2023-04-24T00:24:10;15.73;;;8.90;;
37633;SDS011;32048;49.902;22.508;2023-04-24T00:26:37;13.07;;;7.87;;
37633;SDS011;32048;49.902;22.508;2023-04-24T00:29:04;15.03;;;8.23;;
37633;SDS011;32048;49.902;22.508;2023-04-24T00:31:31;15.60;;;8.43;;
37633;SDS011;32048;49.902;22.508;2023-04-24T00:34:01;16.20;;;7.90;;
37633;SDS011;32048;49.902;22.508;2023-04-24T00:36:29;11.50;;;8.13;;
37633;SDS011;32048;49.902;22.508;2023-04-24T00:38:57;13.53;;;8.30;;
37633;SDS011;32048;49.902;22.508;2023-04-24T00:41:25;11.67;;;7.97;;
37633;SDS011;32048;49.902;22.508;2023-04-24T00:43:52;10.07;;;6.73;;
37633;SDS011;32048;49.902;22.508;2023-04-24T00:46:19;13.00;;;7.70;;
37633;SDS011;32048;49.902;22.508;2023-04-24T00:48:47;10.40;;;7.97;;
37633;SDS011;32048;49.902;22.508;2023-04-24T00:51:15;11.00;;;8.00;;
37633;SDS011;32048;49.902;22.508;2023-04-24T00:53:42;14.17;;;7.93;;
37633;SDS011;32048;49.902;22.508;2023-04-24T00:56:09;12.77;;;7.40;;
37633;SDS011;32048;49.902;22.508;2023-04-24T00:58:36;11.70;;;8.00;;
37633;SDS011;32048;49.902;22.508;2023-04-24T01:01:04;12.47;;;8.13;;
37633;SDS011;32048;49.902;22.508;2023-04-24T01:03:33;11.40;;;7.50;;
37633;SDS011;32048;49.902;22.508;2023-04-24T01:06:04;12.87;;;7.70;;
37633;SDS011;32048;49.902;22.508;2023-04-24T01:08:32;13.90;;;7.30;;
37633;SDS011;32048;49.902;22.508;2023-04-24T01:11:00;11.50;;;7.10;;
37633;SDS011;32048;49.902;22.508;2023-04-24T01:13:31;14.87;;;7.57;;
37633;SDS011;32048;49.902;22.508;2023-04-24T01:15:59;10.88;;;7.53;;
37633;SDS011;32048;49.902;22.508;2023-04-24T01:18:27;12.00;;;7.50;;
37633;SDS011;32048;49.902;22.508;2023-04-24T01:20:57;14.23;;;7.77;;
37633;SDS011;32048;49.902;22.508;2023-04-24T01:23:25;14.73;;;7.10;;
37633;SDS011;32048;49.902;22.508;2023-04-24T01:25:53;15.23;;;8.53;;
37633;SDS011;32048;49.902;22.508;2023-04-24T01:28:20;11.33;;;7.27;;
37633;SDS011;32048;49.902;22.508;2023-04-24T01:30:48;11.63;;;7.00;;
37633;SDS011;32048;49.902;22.508;2023-04-24T01:33:15;12.73;;;7.13;;
37633;SDS011;32048;49.902;22.508;2023-04-24T01:35:42;10.13;;;7.10;;
37633;SDS011;32048;49.902;22.508;2023-04-24T01:38:09;14.73;;;7.47;;
37633;SDS011;32048;49.902;22.508;2023-04-24T01:40:37;10.43;;;7.57;;
37633;SDS011;32048;49.902;22.508;2023-04-24T01:43:04;10.47;;;7.03;;
37633;SDS011;32048;49.902;22.508;2023-04-24T01:45:32;11.73;;;7.33;;
37633;SDS011;32048;49.902;22.508;2023-04-24T01:47:58;12.50;;;8.30;;
37633;SDS011;32048;49.902;22.508;2023-04-24T01:50:27;11.63;;;7.47;;
37633;SDS011;32048;49.902;22.508;2023-04-24T01:52:54;11.67;;;8.17;;
37633;SDS011;32048;49.902;22.508;2023-04-24T01:55:22;12.03;;;7.73;;
37633;SDS011;32048;49.902;22.508;2023-04-24T01:57:49;12.07;;;7.90;;
37633;SDS011;32048;49.902;22.508;2023-04-24T02:00:17;13.67;;;8.60;;
37633;SDS011;32048;49.902;22.508;2023-04-24T02:02:43;12.20;;;8.13;;
37633;SDS011;32048;49.902;22.508;2023-04-24T02:05:14;10.80;;;7.37;;
37633;SDS011;32048;49.902;22.508;2023-04-24T02:07:41;10.43;;;7.90;;
37633;SDS011;32048;49.902;22.508;2023-04-24T02:10:09;11.43;;;8.03;;
37633;SDS011;32048;49.902;22.508;2023-04-24T02:12:36;13.83;;;8.07;;
37633;SDS011;32048;49.902;22.508;2023-04-24T02:15:03;14.10;;;7.93;;
37633;SDS011;32048;49.902;22.508;2023-04-24T02:17:31;11.33;;;8.20;;
37633;SDS011;32048;49.902;22.508;2023-04-24T02:19:58;12.20;;;7.30;;
37633;SDS011;32048;49.902;22.508;2023-04-24T02:22:25;15.10;;;8.40;;
37633;SDS011;32048;49.902;22.508;2023-04-24T02:24:52;10.77;;;8.60;;
37633;SDS011;32048;49.902;22.508;2023-04-24T02:27:19;12.63;;;8.60;;
37633;SDS011;32048;49.902;22.508;2023-04-24T02:29:46;11.33;;;8.20;;
37633;SDS011;32048;49.902;22.508;2023-04-24T02:32:13;16.90;;;9.17;;
37633;SDS011;32048;49.902;22.508;2023-04-24T02:34:42;13.13;;;8.05;;
37633;SDS011;32048;49.902;22.508;2023-04-24T02:37:09;12.90;;;8.20;;
37633;SDS011;32048;49.902;22.508;2023-04-24T02:39:36;15.17;;;9.47;;
37633;SDS011;32048;49.902;22.508;2023-04-24T02:42:03;12.80;;;8.47;;
37633;SDS011;32048;49.902;22.508;2023-04-24T02:44:31;13.67;;;9.20;;
37633;SDS011;32048;49.902;22.508;2023-04-24T02:46:58;18.90;;;8.93;;
37633;SDS011;32048;49.902;22.508;2023-04-24T02:49:25;17.40;;;10.33;;
37633;SDS011;32048;49.902;22.508;2023-04-24T02:51:52;19.23;;;9.77;;
37633;SDS011;32048;49.902;22.508;2023-04-24T02:54:19;15.20;;;9.37;;
37633;SDS011;32048;49.902;22.508;2023-04-24T02:56:46;17.13;;;9.40;;
37633;SDS011;32048;49.902;22.508;2023-04-24T02:59:13;16.00;;;10.50;;
37633;SDS011;32048;49.902;22.508;2023-04-24T03:01:40;16.33;;;10.33;;
37633;SDS011;32048;49.902;22.508;2023-04-24T03:04:07;15.27;;;9.63;;
37633;SDS011;32048;49.902;22.508;2023-04-24T03:06:35;14.53;;;9.20;;
37633;SDS011;32048;49.902;22.508;2023-04-24T03:09:02;13.33;;;8.63;;
37633;SDS011;32048;49.902;22.508;2023-04-24T03:11:30;11.93;;;8.47;;
37633;SDS011;32048;49.902;22.508;2023-04-24T03:13:57;15.97;;;8.30;;
37633;SDS011;32048;49.902;22.508;2023-04-24T03:16:24;16.00;;;8.30;;
37633;SDS011;32048;49.902;22.508;2023-04-24T03:18:51;14.53;;;8.90;;
37633;SDS011;32048;49.902;22.508;2023-04-24T03:21:18;11.07;;;8.37;;
37633;SDS011;32048;49.902;22.508;2023-04-24T03:23:46;12.80;;;9.33;;
37633;SDS011;32048;49.902;22.508;2023-04-24T03:26:12;13.90;;;9.23;;
37633;SDS011;32048;49.902;22.508;2023-04-24T03:28:40;16.63;;;9.67;;
37633;SDS011;32048;49.902;22.508;2023-04-24T03:31:07;15.37;;;8.70;;
37633;SDS011;32048;49.902;22.508;2023-04-24T03:33:34;12.23;;;9.30;;
37633;SDS011;32048;49.902;22.508;2023-04-24T03:36:02;12.97;;;10.03;;
37633;SDS011;32048;49.902;22.508;2023-04-24T03:38:30;12.90;;;9.03;;
37633;SDS011;32048;49.902;22.508;2023-04-24T03:40:56;15.67;;;8.73;;
37633;SDS011;32048;49.902;22.508;2023-04-24T03:43:24;14.03;;;8.63;;
37633;SDS011;32048;49.902;22.508;2023-04-24T03:45:51;12.83;;;8.93;;
37633;SDS011;32048;49.902;22.508;2023-04-24T03:48:18;13.60;;;9.10;;
37633;SDS011;32048;49.902;22.508;2023-04-24T03:50:45;13.43;;;8.47;;
37633;SDS011;32048;49.902;22.508;2023-04-24T03:53:12;13.40;;;8.80;;
37633;SDS011;32048;49.902;22.508;2023-04-24T03:55:39;15.83;;;9.33;;
37633;SDS011;32048;49.902;22.508;2023-04-24T03:58:06;13.33;;;8.40;;
37633;SDS011;32048;49.902;22.508;2023-04-24T04:00:33;13.90;;;8.60;;
37633;SDS011;32048;49.902;22.508;2023-04-24T04:03:01;12.33;;;7.70;;
37633;SDS011;32048;49.902;22.508;2023-04-24T04:05:28;12.27;;;7.90;;
37633;SDS011;32048;49.902;22.508;2023-04-24T04:07:56;15.37;;;8.40;;
37633;SDS011;32048;49.902;22.508;2023-04-24T04:10:23;10.50;;;7.60;;
37633;SDS011;32048;49.902;22.508;2023-04-24T04:12:50;12.60;;;8.17;;
37633;SDS011;32048;49.902;22.508;2023-04-24T04:15:17;13.83;;;8.70;;
37633;SDS011;32048;49.902;22.508;2023-04-24T04:17:44;10.20;;;7.50;;
37633;SDS011;32048;49.902;22.508;2023-04-24T04:20:12;11.48;;;7.72;;
37633;SDS011;32048;49.902;22.508;2023-04-24T04:22:40;10.48;;;6.70;;
37633;SDS011;32048;49.902;22.508;2023-04-24T04:25:10;11.35;;;6.82;;
37633;SDS011;32048;49.902;22.508;2023-04-24T04:27:38;11.10;;;7.50;;
37633;SDS011;32048;49.902;22.508;2023-04-24T04:30:05;10.10;;;7.68;;
37633;SDS011;32048;49.902;22.508;2023-04-24T04:32:33;10.45;;;6.45;;
37633;SDS011;32048;49.902;22.508;2023-04-24T04:35:01;14.05;;;6.53;;
37633;SDS011;32048;49.902;22.508;2023-04-24T04:37:31;13.57;;;6.30;;
37633;SDS011;32048;49.902;22.508;2023-04-24T04:40:02;7.25;;;5.13;;
37633;SDS011;32048;49.902;22.508;2023-04-24T04:42:33;9.82;;;6.38;;
37633;SDS011;32048;49.902;22.508;2023-04-24T04:45:00;13.40;;;6.40;;
37633;SDS011;32048;49.902;22.508;2023-04-24T04:47:27;9.05;;;5.57;;
37633;SDS011;32048;49.902;22.508;2023-04-24T04:49:55;6.63;;;4.57;;
37633;SDS011;32048;49.902;22.508;2023-04-24T04:52:22;9.52;;;5.13;;
37633;SDS011;32048;49.902;22.508;2023-04-24T04:57:18;6.93;;;5.13;;
37633;SDS011;32048;49.902;22.508;2023-04-24T04:59:45;6.88;;;4.97;;
37633;SDS011;32048;49.902;22.508;2023-04-24T05:02:13;7.75;;;4.65;;
37633;SDS011;32048;49.902;22.508;2023-04-24T05:04:40;9.60;;;5.10;;
37633;SDS011;32048;49.902;22.508;2023-04-24T05:07:07;10.23;;;5.50;;
37633;SDS011;32048;49.902;22.508;2023-04-24T05:09:34;8.30;;;5.57;;
37633;SDS011;32048;49.902;22.508;2023-04-24T05:12:01;10.45;;;5.68;;
37633;SDS011;32048;49.902;22.508;2023-04-24T05:14:28;8.90;;;5.15;;
37633;SDS011;32048;49.902;22.508;2023-04-24T05:16:56;10.88;;;5.50;;
37633;SDS011;32048;49.902;22.508;2023-04-24T05:19:23;8.25;;;4.60;;
37633;SDS011;32048;49.902;22.508;2023-04-24T05:21:50;10.07;;;5.20;;
37633;SDS011;32048;49.902;22.508;2023-04-24T05:24:17;8.73;;;4.53;;
37633;SDS011;32048;49.902;22.508;2023-04-24T05:26:44;9.73;;;4.10;;
37633;SDS011;32048;49.902;22.508;2023-04-24T05:29:11;7.38;;;4.60;;
37633;SDS011;32048;49.902;22.508;2023-04-24T05:31:38;8.52;;;4.53;;
37633;SDS011;32048;49.902;22.508;2023-04-24T05:34:05;9.45;;;4.55;;
37633;SDS011;32048;49.902;22.508;2023-04-24T05:36:32;6.70;;;4.68;;
37633;SDS011;32048;49.902;22.508;2023-04-24T05:38:59;12.88;;;5.78;;
37633;SDS011;32048;49.902;22.508;2023-04-24T05:41:26;8.52;;;4.57;;
37633;SDS011;32048;49.902;22.508;2023-04-24T05:43:53;8.43;;;4.25;;
37633;SDS011;32048;49.902;22.508;2023-04-24T05:46:20;9.38;;;5.03;;
37633;SDS011;32048;49.902;22.508;2023-04-24T05:48:47;7.60;;;4.78;;
37633;SDS011;32048;49.902;22.508;2023-04-24T05:51:14;8.25;;;4.63;;
37633;SDS011;32048;49.902;22.508;2023-04-24T05:53:41;5.70;;;4.13;;
37633;SDS011;32048;49.902;22.508;2023-04-24T05:56:08;10.27;;;4.90;;
37633;SDS011;32048;49.902;22.508;2023-04-24T05:58:36;7.78;;;4.13;;
37633;SDS011;32048;49.902;22.508;2023-04-24T06:01:04;11.38;;;4.90;;
37633;SDS011;32048;49.902;22.508;2023-04-24T06:03:31;9.68;;;4.07;;
37633;SDS011;32048;49.902;22.508;2023-04-24T06:05:58;7.18;;;4.30;;
37633;SDS011;32048;49.902;22.508;2023-04-24T06:08:26;8.98;;;4.43;;
37633;SDS011;32048;49.902;22.508;2023-04-24T06:10:53;9.77;;;4.18;;
37633;SDS011;32048;49.902;22.508;2023-04-24T06:13:20;6.03;;;3.75;;
37633;SDS011;32048;49.902;22.508;2023-04-24T06:15:47;10.57;;;4.75;;
37633;SDS011;32048;49.902;22.508;2023-04-24T06:18:14;7.07;;;3.88;;
37633;SDS011;32048;49.902;22.508;2023-04-24T06:20:41;5.53;;;4.00;;
37633;SDS011;32048;49.902;22.508;2023-04-24T06:23:08;5.00;;;4.05;;
37633;SDS011;32048;49.902;22.508;2023-04-24T06:25:36;5.03;;;3.80;;
37633;SDS011;32048;49.902;22.508;2023-04-24T06:28:03;5.72;;;4.15;;
37633;SDS011;32048;49.902;22.508;2023-04-24T06:30:30;8.70;;;3.72;;
37633;SDS011;32048;49.902;22.508;2023-04-24T06:32:57;8.55;;;4.10;;
37633;SDS011;32048;49.902;22.508;2023-04-24T06:35:38;4.43;;;3.47;;
37633;SDS011;32048;49.902;22.508;2023-04-24T06:38:05;9.10;;;3.92;;
37633;SDS011;32048;49.902;22.508;2023-04-24T06:40:33;5.97;;;3.67;;
37633;SDS011;32048;49.902;22.508;2023-04-24T06:43:00;8.30;;;3.53;;
37633;SDS011;32048;49.902;22.508;2023-04-24T06:45:29;5.43;;;3.40;;
37633;SDS011;32048;49.902;22.508;2023-04-24T06:47:56;4.72;;;3.53;;
37633;SDS011;32048;49.902;22.508;2023-04-24T06:50:29;5.22;;;3.40;;
37633;SDS011;32048;49.902;22.508;2023-04-24T06:52:57;4.97;;;3.95;;
37633;SDS011;32048;49.902;22.508;2023-04-24T06:55:24;5.25;;;3.53;;
37633;SDS011;32048;49.902;22.508;2023-04-24T06:57:51;6.78;;;3.85;;
37633;SDS011;32048;49.902;22.508;2023-04-24T07:00:18;7.85;;;3.70;;
37633;SDS011;32048;49.902;22.508;2023-04-24T07:02:45;4.05;;;3.50;;
37633;SDS011;32048;49.902;22.508;2023-04-24T07:05:13;5.22;;;3.60;;
37633;SDS011;32048;49.902;22.508;2023-04-24T07:07:42;4.38;;;3.70;;
37633;SDS011;32048;49.902;22.508;2023-04-24T07:10:09;7.40;;;3.60;;
37633;SDS011;32048;49.902;22.508;2023-04-24T07:12:36;7.88;;;3.78;;
37633;SDS011;32048;49.902;22.508;2023-04-24T07:15:04;5.50;;;3.70;;
37633;SDS011;32048;49.902;22.508;2023-04-24T07:17:32;7.03;;;3.75;;
37633;SDS011;32048;49.902;22.508;2023-04-24T07:19:59;5.97;;;3.80;;
37633;SDS011;32048;49.902;22.508;2023-04-24T07:22:30;4.20;;;3.47;;
37633;SDS011;32048;49.902;22.508;2023-04-24T07:24:58;4.38;;;3.72;;
37633;SDS011;32048;49.902;22.508;2023-04-24T07:27:25;4.93;;;3.33;;
37633;SDS011;32048;49.902;22.508;2023-04-24T07:29:52;5.90;;;3.72;;
37633;SDS011;32048;49.902;22.508;2023-04-24T07:32:19;4.63;;;3.38;;
37633;SDS011;32048;49.902;22.508;2023-04-24T07:34:46;5.43;;;3.42;;
37633;SDS011;32048;49.902;22.508;2023-04-24T07:37:13;5.70;;;3.00;;
37633;SDS011;32048;49.902;22.508;2023-04-24T07:39:40;5.38;;;3.67;;
37633;SDS011;32048;49.902;22.508;2023-04-24T07:42:08;7.25;;;3.58;;
37633;SDS011;32048;49.902;22.508;2023-04-24T07:44:35;8.38;;;5.70;;
37633;SDS011;32048;49.902;22.508;2023-04-24T07:47:02;5.75;;;3.60;;
37633;SDS011;32048;49.902;22.508;2023-04-24T07:49:30;4.88;;;3.30;;
37633;SDS011;32048;49.902;22.508;2023-04-24T07:51:56;5.70;;;3.58;;
37633;SDS011;32048;49.902;22.508;2023-04-24T07:54:24;7.03;;;3.55;;
37633;SDS011;32048;49.902;22.508;2023-04-24T07:56:51;7.57;;;4.13;;
37633;SDS011;32048;49.902;22.508;2023-04-24T07:59:18;7.40;;;5.10;;
37633;SDS011;32048;49.902;22.508;2023-04-24T08:01:45;5.63;;;3.13;;
37633;SDS011;32048;49.902;22.508;2023-04-24T08:04:12;4.55;;;3.30;;
37633;SDS011;32048;49.902;22.508;2023-04-24T08:06:39;6.25;;;3.38;;
37633;SDS011;32048;49.902;22.508;2023-04-24T08:09:06;8.23;;;3.30;;
37633;SDS011;32048;49.902;22.508;2023-04-24T08:11:33;6.75;;;3.13;;
37633;SDS011;32048;49.902;22.508;2023-04-24T08:14:00;7.65;;;3.40;;
37633;SDS011;32048;49.902;22.508;2023-04-24T08:16:27;5.70;;;3.17;;
37633;SDS011;32048;49.902;22.508;2023-04-24T08:18:55;4.90;;;3.10;;
37633;SDS011;32048;49.902;22.508;2023-04-24T08:21:21;5.20;;;3.08;;
37633;SDS011;32048;49.902;22.508;2023-04-24T08:23:49;4.63;;;2.92;;
37633;SDS011;32048;49.902;22.508;2023-04-24T08:26:16;6.20;;;3.10;;
37633;SDS011;32048;49.902;22.508;2023-04-24T08:28:43;8.00;;;3.33;;
37633;SDS011;32048;49.902;22.508;2023-04-24T08:31:10;4.72;;;3.15;;
37633;SDS011;32048;49.902;22.508;2023-04-24T08:33:38;5.22;;;2.90;;
37633;SDS011;32048;49.902;22.508;2023-04-24T08:36:05;5.22;;;3.40;;
37633;SDS011;32048;49.902;22.508;2023-04-24T08:41:00;7.78;;;3.20;;
37633;SDS011;32048;49.902;22.508;2023-04-24T08:43:28;4.95;;;2.90;;
37633;SDS011;32048;49.902;22.508;2023-04-24T08:45:56;21.52;;;4.07;;
37633;SDS011;32048;49.902;22.508;2023-04-24T08:48:24;6.65;;;3.42;;
37633;SDS011;32048;49.902;22.508;2023-04-24T08:50:57;5.70;;;3.13;;
37633;SDS011;32048;49.902;22.508;2023-04-24T08:53:26;7.43;;;3.10;;
37633;SDS011;32048;49.902;22.508;2023-04-24T08:55:54;5.07;;;3.20;;
37633;SDS011;32048;49.902;22.508;2023-04-24T08:58:26;3.40;;;2.90;;
37633;SDS011;32048;49.902;22.508;2023-04-24T09:00:54;5.03;;;3.22;;
37633;SDS011;32048;49.902;22.508;2023-04-24T09:03:22;10.43;;;3.03;;
37633;SDS011;32048;49.902;22.508;2023-04-24T09:05:49;3.47;;;3.17;;
37633;SDS011;32048;49.902;22.508;2023-04-24T09:08:18;4.70;;;3.00;;
37633;SDS011;32048;49.902;22.508;2023-04-24T09:13:16;6.32;;;3.03;;
37633;SDS011;32048;49.902;22.508;2023-04-24T09:15:44;4.30;;;3.40;;
37633;SDS011;32048;49.902;22.508;2023-04-24T09:18:11;4.85;;;3.10;;
37633;SDS011;32048;49.902;22.508;2023-04-24T09:20:57;5.00;;;3.00;;
37633;SDS011;32048;49.902;22.508;2023-04-24T09:23:30;7.80;;;3.67;;
37633;SDS011;32048;49.902;22.508;2023-04-24T09:25:59;5.93;;;3.15;;
37633;SDS011;32048;49.902;22.508;2023-04-24T09:31:15;5.47;;;3.30;;
37633;SDS011;32048;49.902;22.508;2023-04-24T09:33:54;3.20;;;2.90;;
37633;SDS011;32048;49.902;22.508;2023-04-24T09:36:31;6.28;;;3.22;;
37633;SDS011;32048;49.902;22.508;2023-04-24T09:39:00;5.45;;;3.25;;
37633;SDS011;32048;49.902;22.508;2023-04-24T09:41:28;4.95;;;3.17;;
37633;SDS011;32048;49.902;22.508;2023-04-24T09:43:56;8.60;;;3.53;;
37633;SDS011;32048;49.902;22.508;2023-04-24T09:46:29;5.07;;;3.28;;
37633;SDS011;32048;49.902;22.508;2023-04-24T09:49:07;5.25;;;3.15;;
37633;SDS011;32048;49.902;22.508;2023-04-24T09:51:42;4.57;;;3.25;;
37633;SDS011;32048;49.902;22.508;2023-04-24T09:54:13;10.52;;;4.40;;
37633;SDS011;32048;49.902;22.508;2023-04-24T09:56:43;4.15;;;3.38;;
37633;SDS011;32048;49.902;22.508;2023-04-24T09:59:12;5.00;;;3.65;;
37633;SDS011;32048;49.902;22.508;2023-04-24T10:01:40;7.60;;;4.03;;
37633;SDS011;32048;49.902;22.508;2023-04-24T10:04:25;5.07;;;3.92;;
37633;SDS011;32048;49.902;22.508;2023-04-24T10:06:54;5.43;;;3.90;;
37633;SDS011;32048;49.902;22.508;2023-04-24T10:09:26;5.80;;;3.70;;
37633;SDS011;32048;49.902;22.508;2023-04-24T10:11:53;4.43;;;3.30;;
37633;SDS011;32048;49.902;22.508;2023-04-24T10:14:23;12.25;;;4.50;;
37633;SDS011;32048;49.902;22.508;2023-04-24T10:16:54;7.50;;;3.55;;
37633;SDS011;32048;49.902;22.508;2023-04-24T10:19:25;13.07;;;4.53;;
37633;SDS011;32048;49.902;22.508;2023-04-24T10:21:52;10.20;;;4.33;;
37633;SDS011;32048;49.902;22.508;2023-04-24T10:24:22;6.57;;;3.72;;
37633;SDS011;32048;49.902;22.508;2023-04-24T10:26:49;6.05;;;3.58;;
37633;SDS011;32048;49.902;22.508;2023-04-24T10:29:17;7.15;;;3.53;;
37633;SDS011;32048;49.902;22.508;2023-04-24T10:31:46;4.78;;;3.60;;
37633;SDS011;32048;49.902;22.508;2023-04-24T10:34:14;7.28;;;3.63;;
37633;SDS011;32048;49.902;22.508;2023-04-24T10:36:44;5.55;;;3.42;;
37633;SDS011;32048;49.902;22.508;2023-04-24T10:39:14;7.55;;;3.85;;
37633;SDS011;32048;49.902;22.508;2023-04-24T10:41:43;8.55;;;3.85;;
37633;SDS011;32048;49.902;22.508;2023-04-24T10:44:11;7.07;;;4.30;;
37633;SDS011;32048;49.902;22.508;2023-04-24T10:46:42;9.48;;;3.97;;
37633;SDS011;32048;49.902;22.508;2023-04-24T10:49:11;13.85;;;4.22;;
37633;SDS011;32048;49.902;22.508;2023-04-24T10:51:51;7.85;;;3.90;;
37633;SDS011;32048;49.902;22.508;2023-04-24T10:54:26;11.25;;;4.10;;
37633;SDS011;32048;49.902;22.508;2023-04-24T10:59:47;6.65;;;3.33;;
37633;SDS011;32048;49.902;22.508;2023-04-24T11:02:15;8.65;;;3.53;;
37633;SDS011;32048;49.902;22.508;2023-04-24T11:04:43;6.93;;;3.75;;
37633;SDS011;32048;49.902;22.508;2023-04-24T11:07:10;6.60;;;3.50;;
37633;SDS011;32048;49.902;22.508;2023-04-24T11:09:38;8.93;;;4.18;;
37633;SDS011;32048;49.902;22.508;2023-04-24T11:12:10;4.97;;;3.50;;
37633;SDS011;32048;49.902;22.508;2023-04-24T11:20:01;11.55;;;5.22;;
37633;SDS011;32048;49.902;22.508;2023-04-24T11:22:53;11.90;;;5.05;;
37633;SDS011;32048;49.902;22.508;2023-04-24T11:27:52;5.85;;;3.67;;
37633;SDS011;32048;49.902;22.508;2023-04-24T11:30:31;5.65;;;3.80;;
37633;SDS011;32048;49.902;22.508;2023-04-24T11:33:03;7.25;;;4.18;;
37633;SDS011;32048;49.902;22.508;2023-04-24T11:35:35;9.15;;;4.30;;
37633;SDS011;32048;49.902;22.508;2023-04-24T11:38:06;7.22;;;4.13;;
37633;SDS011;32048;49.902;22.508;2023-04-24T11:40:51;7.13;;;3.72;;
37633;SDS011;32048;49.902;22.508;2023-04-24T11:43:19;5.80;;;4.03;;
37633;SDS011;32048;49.902;22.508;2023-04-24T11:45:50;7.78;;;3.10;;
37633;SDS011;32048;49.902;22.508;2023-04-24T11:48:20;3.40;;;2.92;;
37633;SDS011;32048;49.902;22.508;2023-04-24T11:50:49;9.07;;;3.50;;
37633;SDS011;32048;49.902;22.508;2023-04-24T11:53:18;8.93;;;4.53;;
37633;SDS011;32048;49.902;22.508;2023-04-24T11:55:47;8.40;;;3.55;;
37633;SDS011;32048;49.902;22.508;2023-04-24T11:58:14;7.18;;;3.92;;
37633;SDS011;32048;49.902;22.508;2023-04-24T12:00:42;4.93;;;3.10;;
37633;SDS011;32048;49.902;22.508;2023-04-24T12:03:12;6.68;;;3.30;;
37633;SDS011;32048;49.902;22.508;2023-04-24T12:05:40;5.25;;;3.15;;
37633;SDS011;32048;49.902;22.508;2023-04-24T12:08:07;7.40;;;4.40;;
37633;SDS011;32048;49.902;22.508;2023-04-24T12:10:34;6.18;;;3.60;;
37633;SDS011;32048;49.902;22.508;2023-04-24T12:13:01;3.55;;;2.92;;
37633;SDS011;32048;49.902;22.508;2023-04-24T12:15:29;6.82;;;3.67;;
37633;SDS011;32048;49.902;22.508;2023-04-24T12:17:56;9.15;;;3.15;;
37633;SDS011;32048;49.902;22.508;2023-04-24T12:20:26;3.42;;;2.83;;
37633;SDS011;32048;49.902;22.508;2023-04-24T12:22:55;4.90;;;3.15;;
37633;SDS011;32048;49.902;22.508;2023-04-24T12:25:33;5.30;;;3.50;;
37633;SDS011;32048;49.902;22.508;2023-04-24T12:30:32;5.85;;;3.10;;
37633;SDS011;32048;49.902;22.508;2023-04-24T12:33:02;5.22;;;2.97;;
37633;SDS011;32048;49.902;22.508;2023-04-24T12:35:31;3.20;;;2.85;;
37633;SDS011;32048;49.902;22.508;2023-04-24T12:38:06;4.28;;;2.90;;
37633;SDS011;32048;49.902;22.508;2023-04-24T12:40:35;8.25;;;4.10;;
37633;SDS011;32048;49.902;22.508;2023-04-24T12:43:02;4.35;;;3.50;;
37633;SDS011;32048;49.902;22.508;2023-04-24T12:45:39;5.55;;;2.78;;
37633;SDS011;32048;49.902;22.508;2023-04-24T12:48:06;6.18;;;2.67;;
37633;SDS011;32048;49.902;22.508;2023-04-24T12:50:33;3.95;;;2.90;;
37633;SDS011;32048;49.902;22.508;2023-04-24T12:53:00;4.57;;;3.33;;
37633;SDS011;32048;49.902;22.508;2023-04-24T12:55:27;4.82;;;2.85;;
37633;SDS011;32048;49.902;22.508;2023-04-24T12:57:54;5.05;;;3.38;;
37633;SDS011;32048;49.902;22.508;2023-04-24T13:00:22;4.20;;;2.92;;
37633;SDS011;32048;49.902;22.508;2023-04-24T13:02:49;9.07;;;3.85;;
37633;SDS011;32048;49.902;22.508;2023-04-24T13:05:17;6.70;;;3.55;;
37633;SDS011;32048;49.902;22.508;2023-04-24T13:07:44;4.57;;;2.83;;
37633;SDS011;32048;49.902;22.508;2023-04-24T13:10:11;6.68;;;3.33;;
37633;SDS011;32048;49.902;22.508;2023-04-24T13:12:39;5.73;;;3.87;;
37633;SDS011;32048;49.902;22.508;2023-04-24T13:15:07;4.07;;;3.00;;
37633;SDS011;32048;49.902;22.508;2023-04-24T13:17:34;4.68;;;3.17;;
37633;SDS011;32048;49.902;22.508;2023-04-24T13:20:01;4.57;;;3.33;;
37633;SDS011;32048;49.902;22.508;2023-04-24T13:22:29;8.43;;;3.92;;
37633;SDS011;32048;49.902;22.508;2023-04-24T13:24:56;11.35;;;4.03;;
37633;SDS011;32048;49.902;22.508;2023-04-24T13:27:23;7.93;;;3.60;;
37633;SDS011;32048;49.902;22.508;2023-04-24T13:29:50;6.53;;;3.60;;
37633;SDS011;32048;49.902;22.508;2023-04-24T13:32:17;7.57;;;4.35;;
37633;SDS011;32048;49.902;22.508;2023-04-24T13:34:45;5.10;;;3.50;;
37633;SDS011;32048;49.902;22.508;2023-04-24T13:37:12;5.95;;;3.65;;
37633;SDS011;32048;49.902;22.508;2023-04-24T13:39:40;8.05;;;3.70;;
37633;SDS011;32048;49.902;22.508;2023-04-24T13:42:08;10.87;;;4.10;;
37633;SDS011;32048;49.902;22.508;2023-04-24T13:44:35;5.93;;;3.20;;
37633;SDS011;32048;49.902;22.508;2023-04-24T13:47:02;6.05;;;3.15;;
37633;SDS011;32048;49.902;22.508;2023-04-24T13:49:29;5.97;;;3.20;;
37633;SDS011;32048;49.902;22.508;2023-04-24T13:51:57;5.50;;;3.28;;
37633;SDS011;32048;49.902;22.508;2023-04-24T13:54:24;3.45;;;3.08;;
37633;SDS011;32048;49.902;22.508;2023-04-24T13:56:52;8.82;;;4.43;;
37633;SDS011;32048;49.902;22.508;2023-04-24T13:59:20;18.90;;;4.85;;
37633;SDS011;32048;49.902;22.508;2023-04-24T14:01:50;31.52;;;4.82;;
37633;SDS011;32048;49.902;22.508;2023-04-24T14:04:17;7.13;;;3.65;;
37633;SDS011;32048;49.902;22.508;2023-04-24T14:06:44;12.20;;;7.35;;
37633;SDS011;32048;49.902;22.508;2023-04-24T14:09:11;19.13;;;13.95;;
37633;SDS011;32048;49.902;22.508;2023-04-24T14:11:39;7.88;;;5.07;;
37633;SDS011;32048;49.902;22.508;2023-04-24T14:14:07;10.50;;;5.30;;
37633;SDS011;32048;49.902;22.508;2023-04-24T14:16:34;10.63;;;5.15;;
37633;SDS011;32048;49.902;22.508;2023-04-24T14:19:02;9.02;;;5.05;;
37633;SDS011;32048;49.902;22.508;2023-04-24T14:21:29;13.13;;;7.57;;
37633;SDS011;32048;49.902;22.508;2023-04-24T14:23:56;10.38;;;6.90;;
37633;SDS011;32048;49.902;22.508;2023-04-24T14:26:23;9.90;;;4.88;;
37633;SDS011;32048;49.902;22.508;2023-04-24T14:28:51;16.27;;;7.55;;
37633;SDS011;32048;49.902;22.508;2023-04-24T14:31:32;7.95;;;5.63;;
37633;SDS011;32048;49.902;22.508;2023-04-24T14:34:00;22.25;;;11.55;;
37633;SDS011;32048;49.902;22.508;2023-04-24T14:36:27;11.30;;;6.45;;
37633;SDS011;32048;49.902;22.508;2023-04-24T14:38:54;7.03;;;4.30;;
37633;SDS011;32048;49.902;22.508;2023-04-24T14:41:21;29.92;;;22.00;;
37633;SDS011;32048;49.902;22.508;2023-04-24T14:43:48;40.72;;;28.05;;
37633;SDS011;32048;49.902;22.508;2023-04-24T14:46:15;46.92;;;29.48;;
37633;SDS011;32048;49.902;22.508;2023-04-24T14:48:42;139.60;;;58.47;;
37633;SDS011;32048;49.902;22.508;2023-04-24T14:51:09;41.00;;;16.80;;
37633;SDS011;32048;49.902;22.508;2023-04-24T14:53:36;37.08;;;14.05;;
37633;SDS011;32048;49.902;22.508;2023-04-24T14:56:03;14.70;;;6.47;;
37633;SDS011;32048;49.902;22.508;2023-04-24T14:58:31;41.90;;;17.50;;